Time;durP1;ratioP1;P1;durP2;ratioP2;P2;SDS_P1;SDS_P2;PMS_P1;PMS_P2;Temp;Humidity;BMP_temperature;BMP_pressure;BME280_temperature;BME280_humidity;BME280_pressure;Samples;Min_cycle;Max_cycle;Signal;HPM_P1;HPM_P2
2021/01/10 00:01:53;;;;;;;0.00;0.00;;;;;;;;;;4981540;28;20190;-66
2021/01/10 00:04:24;;;;;;;0.00;0.00;;;;;;;;;;4965309;28;20304;-66
2021/01/10 00:06:56;;;;;;;0.00;0.00;;;;;;;;;;4983806;28;20042;-65
2021/01/10 00:12:59;;;;;;;0.00;0.00;;;;;;;;;;4978071;28;20569;-64
2021/01/10 00:15:42;;;;;;;0.08;0.08;;;;;;;;;;4980643;28;20073;-66
2021/01/10 00:18:08;;;;;;;0.00;0.00;;;;;;;;;;4982247;28;20056;-65
2021/01/10 00:20:33;;;;;;;0.00;0.00;;;;;;;;;;4978719;28;20485;-67
2021/01/10 00:23:03;;;;;;;0.00;0.00;;;;;;;;;;4979981;28;20038;-65
2021/01/10 00:25:33;;;;;;;0.00;0.00;;;;;;;;;;4978653;28;20034;-66
2021/01/10 00:28:02;;;;;;;0.00;0.00;;;;;;;;;;4961061;28;20057;-66
2021/01/10 00:30:27;;;;;;;0.00;0.00;;;;;;;;;;4978374;28;20478;-65
2021/01/10 00:32:54;;;;;;;0.00;0.00;;;;;;;;;;4980855;28;20034;-66
2021/01/10 00:35:22;;;;;;;0.00;0.00;;;;;;;;;;4980745;28;20131;-66
2021/01/10 00:37:54;;;;;;;0.00;0.00;;;;;;;;;;4979385;28;20026;-66
2021/01/10 00:40:25;;;;;;;0.00;0.00;;;;;;;;;;4963543;28;20034;-66
2021/01/10 00:42:51;;;;;;;0.00;0.00;;;;;;;;;;4980134;28;20454;-65
2021/01/10 00:45:17;;;;;;;0.00;0.00;;;;;;;;;;4964056;28;20152;-65
2021/01/10 00:47:45;;;;;;;0.00;0.00;;;;;;;;;;4961482;28;20764;-66
2021/01/10 00:50:15;;;;;;;0.20;0.20;;;;;;;;;;4961775;28;20066;-66
2021/01/10 00:52:41;;;;;;;0.00;0.00;;;;;;;;;;4979839;28;20029;-65
2021/01/10 00:55:08;;;;;;;0.00;0.00;;;;;;;;;;4980006;28;20026;-65
2021/01/10 00:57:37;;;;;;;0.57;0.57;;;;;;;;;;4978693;28;20084;-65
2021/01/10 01:00:07;;;;;;;0.00;0.00;;;;;;;;;;4979069;28;20029;-65
2021/01/10 01:02:33;;;;;;;0.00;0.00;;;;;;;;;;4964491;28;20204;-65
2021/01/10 01:05:02;;;;;;;0.00;0.00;;;;;;;;;;4979446;28;20125;-65
2021/01/10 01:07:27;;;;;;;0.00;0.00;;;;;;;;;;4975448;28;22100;-65
2021/01/10 01:09:53;;;;;;;0.00;0.00;;;;;;;;;;4962204;28;20033;-66
2021/01/10 01:12:19;;;;;;;0.00;0.00;;;;;;;;;;4976654;28;20299;-65
2021/01/10 01:14:44;;;;;;;0.00;0.00;;;;;;;;;;4981712;28;20108;-66
2021/01/10 01:17:10;;;;;;;0.00;0.00;;;;;;;;;;4978710;28;20781;-64
2021/01/10 01:19:36;;;;;;;0.00;0.00;;;;;;;;;;4966926;28;20033;-65
2021/01/10 01:22:02;;;;;;;0.03;0.03;;;;;;;;;;4967309;28;20122;-65
2021/01/10 01:24:28;;;;;;;0.00;0.00;;;;;;;;;;4981338;28;20025;-66
2021/01/10 01:26:54;;;;;;;0.00;0.00;;;;;;;;;;4982579;28;20153;-66
2021/01/10 01:29:19;;;;;;;0.40;0.40;;;;;;;;;;4979334;28;20065;-65
2021/01/10 01:35:21;;;;;;;0.00;0.00;;;;;;;;;;4978882;28;20040;-67
2021/01/10 01:37:47;;;;;;;0.00;0.00;;;;;;;;;;4979520;28;20042;-66
2021/01/10 01:40:13;;;;;;;0.00;0.00;;;;;;;;;;4958184;28;20030;-65
2021/01/10 01:42:39;;;;;;;0.00;0.00;;;;;;;;;;4977458;28;20037;-66
2021/01/10 01:45:06;;;;;;;0.00;0.00;;;;;;;;;;4978371;28;20026;-67
2021/01/10 01:47:33;;;;;;;0.00;0.00;;;;;;;;;;4978509;28;20121;-66
2021/01/10 01:49:59;;;;;;;0.00;0.00;;;;;;;;;;4978527;28;20087;-66
2021/01/10 01:52:25;;;;;;;0.00;0.00;;;;;;;;;;4977207;28;20037;-67
2021/01/10 01:54:51;;;;;;;0.00;0.00;;;;;;;;;;4959983;28;20253;-66
2021/01/10 01:57:17;;;;;;;0.00;0.00;;;;;;;;;;4979529;28;20555;-66
2021/01/10 01:59:42;;;;;;;0.00;0.00;;;;;;;;;;4975814;28;20764;-65
2021/01/10 02:02:08;;;;;;;0.00;0.00;;;;;;;;;;4963378;28;20203;-66
2021/01/10 02:04:45;;;;;;;0.00;0.00;;;;;;;;;;4975076;28;20034;-65
2021/01/10 02:07:14;;;;;;;0.88;0.80;;;;;;;;;;4978822;28;20265;-65
2021/01/10 02:09:42;;;;;;;0.00;0.00;;;;;;;;;;4975580;28;20030;-66
2021/01/10 02:12:09;;;;;;;0.00;0.00;;;;;;;;;;4972017;28;20658;-67
2021/01/10 02:14:38;;;;;;;0.00;0.00;;;;;;;;;;4978876;28;20385;-65
2021/01/10 02:17:04;;;;;;;0.00;0.00;;;;;;;;;;4977055;28;20324;-67
2021/01/10 02:19:35;;;;;;;0.00;0.00;;;;;;;;;;4977020;28;20596;-66
2021/01/10 02:22:05;;;;;;;0.00;0.00;;;;;;;;;;4977473;28;20076;-65
2021/01/10 02:24:33;;;;;;;0.00;0.00;;;;;;;;;;4962270;28;20517;-65
2021/01/10 02:26:59;;;;;;;0.00;0.00;;;;;;;;;;4979276;28;20025;-66
2021/01/10 02:29:25;;;;;;;0.00;0.00;;;;;;;;;;4978457;28;20128;-65
2021/01/10 02:31:55;;;;;;;0.00;0.00;;;;;;;;;;4976332;28;20500;-65
2021/01/10 02:34:21;;;;;;;0.00;0.00;;;;;;;;;;4977334;28;20596;-66
2021/01/10 02:36:49;;;;;;;0.00;0.00;;;;;;;;;;4977989;28;21923;-65
2021/01/10 02:39:24;;;;;;;0.00;0.00;;;;;;;;;;4976592;28;20567;-66
2021/01/10 02:41:53;;;;;;;0.00;0.00;;;;;;;;;;4978070;28;21628;-66
2021/01/10 02:44:20;;;;;;;0.00;0.00;;;;;;;;;;4962665;28;20104;-65
2021/01/10 02:46:48;;;;;;;0.00;0.00;;;;;;;;;;4974093;28;20037;-65
2021/01/10 02:49:14;;;;;;;0.00;0.00;;;;;;;;;;4981535;28;20032;-65
2021/01/10 02:51:40;;;;;;;0.00;0.00;;;;;;;;;;4979067;28;20030;-65
2021/01/10 02:54:06;;;;;;;0.00;0.00;;;;;;;;;;4979033;28;20061;-65
2021/01/10 02:56:33;;;;;;;0.00;0.00;;;;;;;;;;4979233;28;20478;-65
2021/01/10 02:59:00;;;;;;;0.00;0.00;;;;;;;;;;4980879;28;22309;-65
2021/01/10 03:01:26;;;;;;;0.00;0.00;;;;;;;;;;4980573;28;20041;-65
2021/01/10 03:03:55;;;;;;;0.00;0.00;;;;;;;;;;4978272;28;20037;-64
2021/01/10 03:06:21;;;;;;;0.00;0.00;;;;;;;;;;4980080;28;20085;-65
2021/01/10 03:08:50;;;;;;;0.00;0.00;;;;;;;;;;4975024;28;20808;-64
2021/01/10 03:11:16;;;;;;;0.00;0.00;;;;;;;;;;4981357;28;20386;-64
2021/01/10 03:13:43;;;;;;;0.00;0.00;;;;;;;;;;4979559;28;20049;-64
2021/01/10 03:16:09;;;;;;;0.00;0.00;;;;;;;;;;4978995;28;20546;-64
2021/01/10 03:18:34;;;;;;;0.00;0.00;;;;;;;;;;4980299;28;20441;-64
2021/01/10 03:21:00;;;;;;;0.00;0.00;;;;;;;;;;4980003;28;20022;-64
2021/01/10 03:23:26;;;;;;;0.00;0.00;;;;;;;;;;4979569;28;20033;-65
2021/01/10 03:25:52;;;;;;;0.00;0.00;;;;;;;;;;4960577;28;20655;-64
2021/01/10 03:28:18;;;;;;;0.00;0.00;;;;;;;;;;4981971;28;20042;-63
2021/01/10 03:30:44;;;;;;;0.00;0.00;;;;;;;;;;4965240;28;20037;-63
2021/01/10 03:33:09;;;;;;;0.00;0.00;;;;;;;;;;4982166;28;20030;-64
2021/01/10 03:35:35;;;;;;;0.00;0.00;;;;;;;;;;4981217;28;20038;-63
2021/01/10 03:38:02;;;;;;;0.00;0.00;;;;;;;;;;4982927;28;20025;-63
2021/01/10 03:40:28;;;;;;;0.00;0.00;;;;;;;;;;4979490;28;20037;-62
2021/01/10 03:42:54;;;;;;;0.00;0.00;;;;;;;;;;4979869;28;20029;-62
2021/01/10 03:45:20;;;;;;;0.00;0.00;;;;;;;;;;4979031;28;20026;-63
2021/01/10 03:47:46;;;;;;;0.00;0.00;;;;;;;;;;4978067;28;20045;-62
2021/01/10 03:50:11;;;;;;;0.00;0.00;;;;;;;;;;4978093;28;20029;-62
2021/01/10 03:52:40;;;;;;;0.00;0.00;;;;;;;;;;4977927;28;20672;-62
2021/01/10 03:55:06;;;;;;;0.38;0.38;;;;;;;;;;4978695;28;20063;-64
2021/01/10 03:57:32;;;;;;;0.00;0.00;;;;;;;;;;4964922;28;20055;-63
2021/01/10 03:59:58;;;;;;;0.00;0.00;;;;;;;;;;4979098;28;20567;-62
2021/01/10 04:02:23;;;;;;;0.00;0.00;;;;;;;;;;4962105;28;20117;-64
2021/01/10 04:04:49;;;;;;;0.00;0.00;;;;;;;;;;4978099;28;20599;-62
2021/01/10 04:07:15;;;;;;;0.00;0.00;;;;;;;;;;4980973;28;20033;-62
2021/01/10 04:09:42;;;;;;;0.00;0.00;;;;;;;;;;4980636;28;20064;-62
2021/01/10 04:12:08;;;;;;;0.00;0.00;;;;;;;;;;4963036;28;20135;-62
2021/01/10 04:14:34;;;;;;;0.00;0.00;;;;;;;;;;4961384;28;20464;-62
2021/01/10 04:16:59;;;;;;;0.00;0.00;;;;;;;;;;4962288;28;20045;-63
2021/01/10 04:19:25;;;;;;;0.00;0.00;;;;;;;;;;4976956;28;20038;-63
2021/01/10 04:21:51;;;;;;;0.00;0.00;;;;;;;;;;4979818;28;20482;-62
2021/01/10 04:24:16;;;;;;;0.00;0.00;;;;;;;;;;4978750;28;20081;-62
2021/01/10 04:26:47;;;;;;;0.00;0.00;;;;;;;;;;4968145;28;20456;-61
2021/01/10 04:32:50;;;;;;;0.00;0.00;;;;;;;;;;4978747;28;20369;-62
2021/01/10 04:35:15;;;;;;;0.00;0.00;;;;;;;;;;4962797;28;20034;-61
2021/01/10 04:41:17;;;;;;;0.00;0.00;;;;;;;;;;4975631;28;20116;-62
2021/01/10 04:43:44;;;;;;;0.00;0.00;;;;;;;;;;4963635;28;20061;-61
2021/01/10 04:46:12;;;;;;;0.00;0.00;;;;;;;;;;4977640;28;20490;-61
2021/01/10 04:48:41;;;;;;;0.00;0.00;;;;;;;;;;4977692;28;20049;-62
2021/01/10 04:51:13;;;;;;;0.00;0.00;;;;;;;;;;4977041;28;20034;-61
2021/01/10 04:53:40;;;;;;;0.00;0.00;;;;;;;;;;4963872;28;20037;-61
2021/01/10 04:56:09;;;;;;;0.00;0.00;;;;;;;;;;4973749;28;20842;-62
2021/01/10 04:58:35;;;;;;;0.00;0.00;;;;;;;;;;4976359;28;20533;-61
2021/01/10 05:01:01;;;;;;;0.00;0.00;;;;;;;;;;4959870;28;20045;-61
2021/01/10 05:03:29;;;;;;;0.00;0.00;;;;;;;;;;4981578;28;20033;-61
2021/01/10 05:05:55;;;;;;;0.00;0.00;;;;;;;;;;4981468;28;20608;-60
2021/01/10 05:08:20;;;;;;;0.00;0.00;;;;;;;;;;4977972;28;20050;-61
2021/01/10 05:10:49;;;;;;;0.00;0.00;;;;;;;;;;4978386;28;20107;-61
2021/01/10 05:13:21;;;;;;;0.00;0.00;;;;;;;;;;4945927;28;20489;-61
2021/01/10 05:15:56;;;;;;;0.00;0.00;;;;;;;;;;4962430;28;20065;-61
2021/01/10 05:18:24;;;;;;;0.00;0.00;;;;;;;;;;4978961;28;20141;-60
2021/01/10 05:20:56;;;;;;;0.00;0.00;;;;;;;;;;4980154;28;20029;-61
2021/01/10 05:23:26;;;;;;;0.30;0.30;;;;;;;;;;4978664;28;20037;-61
2021/01/10 05:26:04;;;;;;;0.00;0.00;;;;;;;;;;4978716;28;20030;-60
2021/01/10 05:28:36;;;;;;;0.00;0.00;;;;;;;;;;4981087;28;20120;-61
2021/01/10 05:31:39;;;;;;;0.00;0.00;;;;;;;;;;4976201;28;20264;-61
2021/01/10 05:34:05;;;;;;;0.00;0.00;;;;;;;;;;4963229;28;22038;-60
2021/01/10 05:36:37;;;;;;;0.00;0.00;;;;;;;;;;4979439;28;20153;-60
2021/01/10 05:42:13;;;;;;;0.00;0.00;;;;;;;;;;4979839;28;20042;-59
2021/01/10 05:44:39;;;;;;;0.00;0.00;;;;;;;;;;4976228;28;20115;-61
2021/01/10 05:47:04;;;;;;;0.00;0.00;;;;;;;;;;4978264;28;20041;-61
2021/01/10 05:49:30;;;;;;;0.00;0.00;;;;;;;;;;4980285;28;20088;-60
2021/01/10 05:51:56;;;;;;;0.00;0.00;;;;;;;;;;4978215;28;20609;-60
2021/01/10 05:54:41;;;;;;;0.00;0.00;;;;;;;;;;4976727;28;20429;-60
2021/01/10 05:57:10;;;;;;;0.00;0.00;;;;;;;;;;4978415;28;20513;-60
2021/01/10 05:59:45;;;;;;;0.00;0.00;;;;;;;;;;4961886;28;20072;-60
2021/01/10 06:02:13;;;;;;;0.00;0.00;;;;;;;;;;4980759;28;20109;-60
2021/01/10 06:04:39;;;;;;;0.00;0.00;;;;;;;;;;4978925;28;20991;-60
2021/01/10 06:07:05;;;;;;;0.00;0.00;;;;;;;;;;4962424;28;20512;-60
2021/01/10 06:09:45;;;;;;;0.00;0.00;;;;;;;;;;4976535;28;20061;-60
2021/01/10 06:12:21;;;;;;;0.00;0.00;;;;;;;;;;4977324;28;20105;-60
2021/01/10 06:14:48;;;;;;;0.00;0.00;;;;;;;;;;4961199;28;20061;-59
2021/01/10 06:17:15;;;;;;;0.00;0.00;;;;;;;;;;4956811;28;20038;-61
2021/01/10 06:19:44;;;;;;;0.00;0.00;;;;;;;;;;4974405;28;20034;-61
2021/01/10 06:22:15;;;;;;;0.00;0.00;;;;;;;;;;4978041;28;20021;-60
2021/01/10 06:24:44;;;;;;;0.00;0.00;;;;;;;;;;4983530;28;20144;-59
2021/01/10 06:27:19;;;;;;;0.00;0.00;;;;;;;;;;4981392;28;20030;-60
2021/01/10 06:29:51;;;;;;;0.00;0.00;;;;;;;;;;4963134;28;20030;-60
2021/01/10 06:32:24;;;;;;;0.00;0.00;;;;;;;;;;4981488;28;20022;-60
2021/01/10 06:34:54;;;;;;;0.00;0.00;;;;;;;;;;4960992;28;20083;-61
2021/01/10 06:37:23;;;;;;;0.90;0.90;;;;;;;;;;4979917;28;20034;-59
2021/01/10 06:39:48;;;;;;;0.00;0.00;;;;;;;;;;4979752;28;20070;-59
2021/01/10 06:42:15;;;;;;;0.00;0.00;;;;;;;;;;4980318;28;20053;-59
2021/01/10 06:44:51;;;;;;;0.00;0.00;;;;;;;;;;4963144;28;20026;-59
2021/01/10 06:47:23;;;;;;;0.00;0.00;;;;;;;;;;4962891;28;20125;-60
2021/01/10 06:49:49;;;;;;;0.00;0.00;;;;;;;;;;4983911;28;20439;-59
2021/01/10 06:52:18;;;;;;;0.13;0.13;;;;;;;;;;4981235;28;20033;-59
2021/01/10 06:54:46;;;;;;;0.00;0.00;;;;;;;;;;4980118;28;20057;-58
2021/01/10 06:57:16;;;;;;;0.00;0.00;;;;;;;;;;4981375;28;20033;-59
2021/01/10 06:59:59;;;;;;;0.00;0.00;;;;;;;;;;4980643;28;20144;-59
2021/01/10 07:02:27;;;;;;;0.00;0.00;;;;;;;;;;4983471;28;20094;-58
2021/01/10 07:04:54;;;;;;;0.00;0.00;;;;;;;;;;4982136;28;20057;-58
2021/01/10 07:07:31;;;;;;;0.00;0.00;;;;;;;;;;4979513;28;20041;-59
2021/01/10 07:09:57;;;;;;;0.00;0.00;;;;;;;;;;4980349;28;20111;-58
2021/01/10 07:12:24;;;;;;;0.00;0.00;;;;;;;;;;4978611;28;20042;-59
2021/01/10 07:14:53;;;;;;;0.00;0.00;;;;;;;;;;4963470;28;20370;-58
2021/01/10 07:17:20;;;;;;;0.00;0.00;;;;;;;;;;4978257;28;20055;-59
2021/01/10 07:19:49;;;;;;;0.00;0.00;;;;;;;;;;4979040;28;20105;-59
2021/01/10 07:22:21;;;;;;;0.00;0.00;;;;;;;;;;4979565;28;20015;-59
2021/01/10 07:24:47;;;;;;;0.00;0.00;;;;;;;;;;4979648;28;20045;-59
2021/01/10 07:27:28;;;;;;;0.00;0.00;;;;;;;;;;4980933;28;20587;-59
2021/01/10 07:29:53;;;;;;;0.00;0.00;;;;;;;;;;4984129;28;20640;-59
2021/01/10 07:32:35;;;;;;;0.00;0.00;;;;;;;;;;4980514;28;20121;-59
2021/01/10 07:35:05;;;;;;;0.00;0.00;;;;;;;;;;4981117;28;20084;-58
2021/01/10 07:37:33;;;;;;;0.00;0.00;;;;;;;;;;4981070;28;20563;-59
2021/01/10 07:40:00;;;;;;;0.00;0.00;;;;;;;;;;4979762;28;20030;-59
2021/01/10 07:42:25;;;;;;;0.00;0.00;;;;;;;;;;4967642;28;20018;-59
2021/01/10 07:44:54;;;;;;;0.00;0.00;;;;;;;;;;4966155;28;20556;-59
2021/01/10 07:47:29;;;;;;;0.00;0.00;;;;;;;;;;4980973;28;20502;-59
2021/01/10 07:50:00;;;;;;;;;;;;;;;;;;4983867;28;20045;-59
2021/01/10 07:52:49;;;;;;;0.00;0.00;;;;;;;;;;4981168;28;20440;-59
2021/01/10 07:55:20;;;;;;;0.00;0.00;;;;;;;;;;4965287;28;20088;-59
2021/01/10 07:58:01;;;;;;;0.00;0.00;;;;;;;;;;4978072;28;20056;-59
2021/01/10 08:00:28;;;;;;;0.00;0.00;;;;;;;;;;4978867;28;20514;-59
2021/01/10 08:03:09;;;;;;;0.00;0.00;;;;;;;;;;4980228;28;20034;-58
2021/01/10 08:05:37;;;;;;;0.00;0.00;;;;;;;;;;4977712;28;20030;-59
2021/01/10 08:08:13;;;;;;;0.00;0.00;;;;;;;;;;4975025;28;20132;-59
2021/01/10 08:10:42;;;;;;;0.00;0.00;;;;;;;;;;4977874;28;20088;-58
2021/01/10 08:13:31;;;;;;;0.00;0.00;;;;;;;;;;4979625;28;20026;-59
2021/01/10 08:15:56;;;;;;;0.00;0.00;;;;;;;;;;4979678;28;20046;-58
2021/01/10 08:18:22;;;;;;;0.00;0.00;;;;;;;;;;4978279;28;20036;-58
2021/01/10 08:20:51;;;;;;;0.00;0.00;;;;;;;;;;4954125;28;20034;-60
2021/01/10 08:23:22;;;;;;;0.00;0.00;;;;;;;;;;4977402;28;20541;-59
2021/01/10 08:25:51;;;;;;;0.00;0.00;;;;;;;;;;4979011;28;20442;-58
2021/01/10 08:28:17;;;;;;;0.00;0.00;;;;;;;;;;4958459;28;20037;-59
2021/01/10 08:30:48;;;;;;;0.65;0.17;;;;;;;;;;4960257;28;20045;-59
2021/01/10 08:33:20;;;;;;;0.00;0.00;;;;;;;;;;4980291;28;20026;-59
2021/01/10 08:35:48;;;;;;;0.00;0.00;;;;;;;;;;4981434;28;20037;-60
2021/01/10 08:38:14;;;;;;;0.00;0.00;;;;;;;;;;4963317;28;20110;-60
2021/01/10 08:40:56;;;;;;;0.00;0.00;;;;;;;;;;4977570;28;20219;-61
2021/01/10 08:43:21;;;;;;;;;;;;;;;;;;4979404;28;20030;-59
2021/01/10 08:45:49;;;;;;;0.00;0.00;;;;;;;;;;4978622;28;20273;-59
2021/01/10 08:48:16;;;;;;;0.85;0.85;;;;;;;;;;4979470;28;20096;-59
2021/01/10 08:50:42;;;;;;;0.00;0.00;;;;;;;;;;4977704;28;20021;-59
2021/01/10 08:53:07;;;;;;;0.00;0.00;;;;;;;;;;4961533;28;20123;-59
2021/01/10 08:55:37;;;;;;;0.00;0.00;;;;;;;;;;4965710;28;20076;-59
2021/01/10 08:58:03;;;;;;;0.00;0.00;;;;;;;;;;4980272;28;20105;-59
2021/01/10 09:00:31;;;;;;;0.00;0.00;;;;;;;;;;4978932;28;20034;-58
2021/01/10 09:03:12;;;;;;;0.00;0.00;;;;;;;;;;4966280;28;20126;-58
2021/01/10 09:05:38;;;;;;;0.00;0.00;;;;;;;;;;4977918;28;20026;-59
2021/01/10 09:08:07;;;;;;;1.10;0.75;;;;;;;;;;4963083;28;20121;-60
2021/01/10 09:10:42;;;;;;;0.10;0.10;;;;;;;;;;4978048;28;20064;-59
2021/01/10 09:13:10;;;;;;;2.63;1.55;;;;;;;;;;4959944;28;20034;-59
2021/01/10 09:15:39;;;;;;;0.77;0.77;;;;;;;;;;4981374;28;20493;-59
2021/01/10 09:18:08;;;;;;;0.00;0.00;;;;;;;;;;4979166;28;20421;-59
2021/01/10 09:20:35;;;;;;;0.00;0.00;;;;;;;;;;4978636;28;20018;-59
2021/01/10 09:23:08;;;;;;;0.43;0.43;;;;;;;;;;4977337;28;20617;-59
2021/01/10 09:25:35;;;;;;;0.00;0.00;;;;;;;;;;4977735;28;20109;-60
2021/01/10 09:28:05;;;;;;;0.00;0.00;;;;;;;;;;4982010;28;20511;-58
2021/01/10 09:30:33;;;;;;;0.00;0.00;;;;;;;;;;4981316;28;20315;-59
2021/01/10 09:33:00;;;;;;;0.00;0.00;;;;;;;;;;4975665;28;20096;-59
2021/01/10 09:35:35;;;;;;;0.00;0.00;;;;;;;;;;4978680;28;20030;-60
2021/01/10 09:38:06;;;;;;;0.00;0.00;;;;;;;;;;4980883;28;20441;-60
2021/01/10 09:40:36;;;;;;;0.00;0.00;;;;;;;;;;4958588;28;20385;-60
2021/01/10 09:43:04;;;;;;;0.00;0.00;;;;;;;;;;4962955;28;20037;-60
2021/01/10 09:45:38;;;;;;;0.00;0.00;;;;;;;;;;4976371;28;20038;-59
2021/01/10 09:48:13;;;;;;;0.00;0.00;;;;;;;;;;4978820;28;20641;-60
2021/01/10 09:50:41;;;;;;;0.00;0.00;;;;;;;;;;4981114;28;20442;-60
2021/01/10 09:53:08;;;;;;;0.00;0.00;;;;;;;;;;4979474;28;20110;-60
2021/01/10 09:55:50;;;;;;;0.03;0.03;;;;;;;;;;4976887;28;21862;-60
2021/01/10 09:58:18;;;;;;;0.00;0.00;;;;;;;;;;4980965;28;20163;-59
2021/01/10 10:01:00;;;;;;;0.20;0.20;;;;;;;;;;4978897;28;20057;-61
2021/01/10 10:03:28;;;;;;;0.00;0.00;;;;;;;;;;4946813;28;20046;-59
2021/01/10 10:05:59;;;;;;;0.00;0.00;;;;;;;;;;4960687;28;20133;-60
2021/01/10 10:08:27;;;;;;;0.32;0.32;;;;;;;;;;4965274;28;20044;-60
2021/01/10 10:10:53;;;;;;;0.00;0.00;;;;;;;;;;4978307;28;20029;-60
2021/01/10 10:13:27;;;;;;;1.85;0.73;;;;;;;;;;4977461;28;20041;-61
2021/01/10 10:15:54;;;;;;;0.30;0.30;;;;;;;;;;4978255;28;20781;-59
2021/01/10 10:18:23;;;;;;;0.00;0.00;;;;;;;;;;4964429;28;20117;-60
2021/01/10 10:20:51;;;;;;;0.10;0.10;;;;;;;;;;4973764;28;20030;-60
2021/01/10 10:23:21;;;;;;;0.00;0.00;;;;;;;;;;4978195;28;20033;-60
2021/01/10 10:25:48;;;;;;;0.10;0.10;;;;;;;;;;4959580;28;20033;-59
2021/01/10 10:28:19;;;;;;;7.28;1.10;;;;;;;;;;4978410;28;20126;-60
2021/01/10 10:30:50;;;;;;;0.00;0.00;;;;;;;;;;4978032;28;20108;-59
2021/01/10 10:33:19;;;;;;;1.65;0.80;;;;;;;;;;4959712;28;20173;-60
2021/01/10 10:35:44;;;;;;;0.00;0.00;;;;;;;;;;4977295;28;21810;-60
2021/01/10 10:38:12;;;;;;;0.00;0.00;;;;;;;;;;4977721;28;20540;-60
2021/01/10 10:40:40;;;;;;;0.30;0.30;;;;;;;;;;4978253;28;20030;-59
2021/01/10 10:43:11;;;;;;;0.25;0.25;;;;;;;;;;4975629;28;20467;-60
2021/01/10 10:45:36;;;;;;;0.00;0.00;;;;;;;;;;4977015;28;20064;-62
2021/01/10 10:48:04;;;;;;;0.10;0.10;;;;;;;;;;4962695;28;20034;-60
2021/01/10 10:50:42;;;;;;;0.00;0.00;;;;;;;;;;4961159;28;20034;-59
2021/01/10 10:53:12;;;;;;;0.00;0.00;;;;;;;;;;4978306;28;20030;-59
2021/01/10 10:55:42;;;;;;;6.40;1.08;;;;;;;;;;4977152;28;20049;-60
2021/01/10 10:58:10;;;;;;;0.00;0.00;;;;;;;;;;4976392;28;20030;-60
2021/01/10 11:00:35;;;;;;;0.00;0.00;;;;;;;;;;4977179;28;20045;-60
2021/01/10 11:03:03;;;;;;;0.00;0.00;;;;;;;;;;4961903;28;20493;-59
2021/01/10 11:05:28;;;;;;;0.73;0.63;;;;;;;;;;4979718;28;20030;-60
2021/01/10 11:07:54;;;;;;;0.15;0.15;;;;;;;;;;4961194;28;20064;-60
2021/01/10 11:10:21;;;;;;;0.00;0.00;;;;;;;;;;4960344;28;20077;-60
2021/01/10 11:13:02;;;;;;;0.00;0.00;;;;;;;;;;4962714;28;20148;-60
2021/01/10 11:15:30;;;;;;;0.00;0.00;;;;;;;;;;4981984;28;20061;-60
2021/01/10 11:17:58;;;;;;;0.05;0.05;;;;;;;;;;4961358;28;20203;-60
2021/01/10 11:20:26;;;;;;;0.05;0.05;;;;;;;;;;4967089;28;20045;-59
2021/01/10 11:22:54;;;;;;;0.00;0.00;;;;;;;;;;4980127;28;20041;-60
2021/01/10 11:25:22;;;;;;;0.00;0.00;;;;;;;;;;4978440;28;20050;-59
2021/01/10 11:27:47;;;;;;;0.00;0.00;;;;;;;;;;4965887;28;20555;-60
2021/01/10 11:30:14;;;;;;;0.20;0.20;;;;;;;;;;4964041;28;20259;-61
2021/01/10 11:32:40;;;;;;;0.00;0.00;;;;;;;;;;4963461;28;20069;-61
2021/01/10 11:35:05;;;;;;;0.17;0.17;;;;;;;;;;4982271;28;20124;-61
2021/01/10 11:37:31;;;;;;;0.00;0.00;;;;;;;;;;4981592;28;20149;-61
2021/01/10 11:39:59;;;;;;;0.10;0.10;;;;;;;;;;4979080;28;20034;-61
2021/01/10 11:42:27;;;;;;;0.00;0.00;;;;;;;;;;4982710;28;20048;-62
2021/01/10 11:44:53;;;;;;;0.00;0.00;;;;;;;;;;4979389;28;20052;-62
2021/01/10 11:47:23;;;;;;;0.22;0.22;;;;;;;;;;4981208;28;20524;-62
2021/01/10 11:49:50;;;;;;;0.10;0.10;;;;;;;;;;4962554;28;20044;-60
2021/01/10 11:52:18;;;;;;;0.00;0.00;;;;;;;;;;4979614;28;20370;-61
2021/01/10 11:54:46;;;;;;;0.00;0.00;;;;;;;;;;4960502;28;20114;-61
2021/01/10 11:57:13;;;;;;;0.20;0.20;;;;;;;;;;4981811;28;20542;-61
2021/01/10 11:59:39;;;;;;;0.32;0.32;;;;;;;;;;4979491;28;20038;-61
2021/01/10 12:02:05;;;;;;;1.38;0.55;;;;;;;;;;4978526;28;20382;-60
2021/01/10 12:04:33;;;;;;;0.00;0.00;;;;;;;;;;4983967;28;20149;-62
2021/01/10 12:07:01;;;;;;;0.10;0.10;;;;;;;;;;4962837;28;20319;-61
2021/01/10 12:09:27;;;;;;;0.00;0.00;;;;;;;;;;4962668;28;20037;-62
2021/01/10 12:11:52;;;;;;;0.00;0.00;;;;;;;;;;4980039;28;20447;-62
2021/01/10 12:14:20;;;;;;;0.00;0.00;;;;;;;;;;4980653;28;20457;-61
2021/01/10 12:16:48;;;;;;;0.45;0.45;;;;;;;;;;4967260;28;20018;-62
2021/01/10 12:19:14;;;;;;;0.00;0.00;;;;;;;;;;4946778;28;20097;-61
2021/01/10 12:21:40;;;;;;;0.00;0.00;;;;;;;;;;4978393;28;21811;-62
2021/01/10 12:24:06;;;;;;;0.15;0.15;;;;;;;;;;4981119;28;20637;-62
2021/01/10 12:26:32;;;;;;;0.05;0.05;;;;;;;;;;4962859;28;20064;-62
2021/01/10 12:29:00;;;;;;;0.00;0.00;;;;;;;;;;4958946;28;20117;-60
2021/01/10 12:31:25;;;;;;;0.80;0.75;;;;;;;;;;4978222;28;20477;-61
2021/01/10 12:33:52;;;;;;;0.00;0.00;;;;;;;;;;4964882;28;20484;-60
2021/01/10 12:36:18;;;;;;;0.00;0.00;;;;;;;;;;4979033;28;21617;-61
2021/01/10 12:38:45;;;;;;;3.00;1.55;;;;;;;;;;4979845;28;20668;-61
2021/01/10 12:41:11;;;;;;;0.10;0.10;;;;;;;;;;4978631;28;20541;-62
2021/01/10 12:43:37;;;;;;;0.00;0.00;;;;;;;;;;4962344;28;20128;-62
2021/01/10 12:46:02;;;;;;;0.35;0.35;;;;;;;;;;4965453;28;20571;-61
2021/01/10 12:48:33;;;;;;;0.00;0.00;;;;;;;;;;4980815;28;20086;-62
2021/01/10 12:50:59;;;;;;;0.10;0.10;;;;;;;;;;4964787;28;20157;-61
2021/01/10 12:53:24;;;;;;;0.20;0.20;;;;;;;;;;4961506;28;20252;-62
2021/01/10 12:55:54;;;;;;;0.00;0.00;;;;;;;;;;4962333;28;20065;-63
2021/01/10 12:58:20;;;;;;;0.00;0.00;;;;;;;;;;4966321;28;20056;-62
2021/01/10 13:00:48;;;;;;;0.32;0.32;;;;;;;;;;4980343;28;20069;-62
2021/01/10 13:03:14;;;;;;;0.20;0.20;;;;;;;;;;4977507;28;20459;-63
2021/01/10 13:05:39;;;;;;;0.00;0.00;;;;;;;;;;4978233;28;20030;-62
2021/01/10 13:08:09;;;;;;;0.75;0.75;;;;;;;;;;4948897;28;20636;-63
2021/01/10 13:10:41;;;;;;;0.00;0.00;;;;;;;;;;4964063;28;20058;-65
2021/01/10 13:13:06;;;;;;;0.90;0.52;;;;;;;;;;4980279;28;20109;-64
2021/01/10 13:15:34;;;;;;;0.00;0.00;;;;;;;;;;4978046;28;20642;-63
2021/01/10 13:18:03;;;;;;;0.00;0.00;;;;;;;;;;4979268;28;20640;-65
2021/01/10 13:20:29;;;;;;;0.17;0.17;;;;;;;;;;4964811;28;20416;-65
2021/01/10 13:22:55;;;;;;;0.88;0.88;;;;;;;;;;4977447;28;20058;-64
2021/01/10 13:25:21;;;;;;;0.68;0.68;;;;;;;;;;4962794;28;20505;-63
2021/01/10 13:27:46;;;;;;;0.00;0.00;;;;;;;;;;4961237;28;20092;-65
2021/01/10 13:30:14;;;;;;;0.10;0.10;;;;;;;;;;4974667;28;20464;-66
2021/01/10 13:32:44;;;;;;;0.08;0.08;;;;;;;;;;4983114;28;20090;-65
2021/01/10 13:35:12;;;;;;;0.00;0.00;;;;;;;;;;4980202;28;20123;-65
2021/01/10 13:37:40;;;;;;;0.00;0.00;;;;;;;;;;4977350;28;20034;-67
2021/01/10 13:40:06;;;;;;;0.00;0.00;;;;;;;;;;4963564;28;20070;-65
2021/01/10 13:42:34;;;;;;;1.90;1.25;;;;;;;;;;4981965;28;20034;-66
2021/01/10 13:45:00;;;;;;;0.00;0.00;;;;;;;;;;4977096;28;20026;-68
2021/01/10 13:47:27;;;;;;;0.13;0.13;;;;;;;;;;4977264;28;20458;-65
2021/01/10 13:49:55;;;;;;;0.20;0.20;;;;;;;;;;4964987;28;20041;-68
2021/01/10 13:52:25;;;;;;;0.03;0.03;;;;;;;;;;4979452;28;20520;-67
2021/01/10 13:54:51;;;;;;;0.00;0.00;;;;;;;;;;4977385;28;20045;-67
2021/01/10 13:57:16;;;;;;;0.00;0.00;;;;;;;;;;4960500;28;20053;-68
2021/01/10 13:59:44;;;;;;;0.50;0.50;;;;;;;;;;4968122;28;20054;-66
2021/01/10 14:02:10;;;;;;;0.00;0.00;;;;;;;;;;4963769;28;20140;-67
2021/01/10 14:04:37;;;;;;;0.13;0.13;;;;;;;;;;4977898;28;20557;-68
2021/01/10 14:07:07;;;;;;;0.40;0.40;;;;;;;;;;4979401;28;20066;-68
2021/01/10 14:09:35;;;;;;;0.10;0.10;;;;;;;;;;4977284;28;21340;-68
2021/01/10 14:12:01;;;;;;;2.47;0.52;;;;;;;;;;4964125;28;20144;-67
2021/01/10 14:14:28;;;;;;;0.00;0.00;;;;;;;;;;4978180;28;21778;-65
2021/01/10 14:17:03;;;;;;;0.30;0.30;;;;;;;;;;4964019;28;22042;-67
2021/01/10 14:19:28;;;;;;;0.43;0.43;;;;;;;;;;4961610;28;20505;-67
2021/01/10 14:21:53;;;;;;;0.85;0.85;;;;;;;;;;4977203;28;20041;-70
2021/01/10 14:24:19;;;;;;;0.50;0.50;;;;;;;;;;4975455;28;20413;-69
2021/01/10 14:26:46;;;;;;;0.10;0.10;;;;;;;;;;4944567;28;20041;-67
2021/01/10 14:29:15;;;;;;;0.00;0.00;;;;;;;;;;4969011;28;20474;-69
2021/01/10 14:31:48;;;;;;;0.00;0.00;;;;;;;;;;4980560;28;20038;-68
2021/01/10 14:34:15;;;;;;;0.00;0.00;;;;;;;;;;4972980;28;20034;-70
2021/01/10 14:36:41;;;;;;;0.63;0.50;;;;;;;;;;4964257;28;20037;-70
2021/01/10 14:39:11;;;;;;;0.00;0.00;;;;;;;;;;4975471;28;20451;-68
2021/01/10 14:41:38;;;;;;;2.50;0.85;;;;;;;;;;4977621;28;20026;-67
2021/01/10 14:44:07;;;;;;;0.28;0.28;;;;;;;;;;4966045;28;20119;-69
2021/01/10 14:46:34;;;;;;;0.00;0.00;;;;;;;;;;4968736;28;20428;-65
2021/01/10 14:49:00;;;;;;;0.30;0.30;;;;;;;;;;4979755;28;20645;-70
2021/01/10 14:51:28;;;;;;;0.28;0.28;;;;;;;;;;4981555;28;20042;-69
2021/01/10 14:53:53;;;;;;;0.00;0.00;;;;;;;;;;4982971;28;20061;-67
2021/01/10 14:56:19;;;;;;;0.00;0.00;;;;;;;;;;4983345;28;20103;-72
2021/01/10 14:58:45;;;;;;;5.30;1.75;;;;;;;;;;4983087;28;21067;-71
2021/01/10 15:01:14;;;;;;;0.45;0.45;;;;;;;;;;4981261;28;20029;-69
2021/01/10 15:03:42;;;;;;;0.00;0.00;;;;;;;;;;4980958;28;20137;-70
2021/01/10 15:06:14;;;;;;;0.52;0.52;;;;;;;;;;4964405;28;20034;-70
2021/01/10 15:08:43;;;;;;;0.00;0.00;;;;;;;;;;4982257;28;20064;-71